In Rescue
 
Open Full Screen Window  High Contrast Mode
Wind Gusting 00 knots
14
June 20, 2021 9:53 AM CDT
Weather Information
Wind Direction
  180 °
Wind Speed
  14 kt (16 mph)
Wind Gust
  00 kt (0 mph)
Altimeter
29.62 in
Visibility
10 SM
Temperature
21° C
70° F
Dewpoint
16° C
61° F
Humidity
73%
1hr Rain Fall
00.00 in.
24hr Rain Fall
00.00 in.
Sky Condition
Broken @ 8,000 ft
Scattered @ 2,700 ft
VFR

METAR KJYG 201453Z AUTO 18014KT 10SM SCT027 BKN080 21/16 A2962 RMK AO2 PWINO

FAA Disclaimer: The data displayed is for advisory purposes only and is not to be used for flight planning or operations.